首页
METAR-TAF:

METAR-TAF

机场 :

内塔吉·苏巴斯·钱德拉·鲍斯国际机场

加尔各答, 印度

纬度: 22-39N, 经度: 088-27E, 海拔: 4米

当前天气观测

该预报发布于28分钟前的21:00 UTC
静风
温度 24°C
湿度 89%
气压 1010 hPa
能見度: 2400
轻雾

METAR: VECC 222100Z 00000KT 2400 BR NSC 24/22 Q1010 NOSIG

时间: 02:58 (21:28 UTC)

预报

该预报发布于1小时和28分钟前的20:00 UTC
预报有效从22日的 21点(UTC)到 23日的 06点(UTC)
风速节,风向
能見度: 2400
轻雾
成为
从 22日的 23点(UTC)到 23日的 01点(UTC)
能見度: 1000
轻雾
成为
从 23日的 02点(UTC)到 23日的 04点(UTC)
风速5节,风向北转西北
能見度: 2800
成为
从 23日的 04点(UTC)到 23日的 06点(UTC)
能見度: 3500

TAF: VECC 222000Z 2221/2306 00000KT 2400 BR NSC BECMG 2223/2301 1000 BR BECMG 2302/2304 33005KT 2800 HZ BECMG 2304/2306 3500 HZ

超过4000个机场的气象观测和天气预报(METAR&TAF报告)。

可查询的气象台以黄色和红色小点在地图上表示。

将鼠标移到小点上方,可查看气象台名称。

然后点击查看天气观测和预报。

如需切换地图:点击带黑十字的绿色按钮放大地图;点击带横线的绿色按钮缩小地图;或者点击绿色箭头查看邻近地区的地图。


METAR-TAF: